sensor_id;sensor_type;location;lat;lon;timestamp;temperature;humidity
20204;DHT22;10261;49.010;12.034;2023-05-07T00:00:24;12.60;99.90
20204;DHT22;10261;49.010;12.034;2023-05-07T00:01:26;12.60;99.90
20204;DHT22;10261;49.010;12.034;2023-05-07T00:02:28;12.50;99.90
20204;DHT22;10261;49.010;12.034;2023-05-07T00:03:31;12.60;99.90
20204;DHT22;10261;49.010;12.034;2023-05-07T00:04:34;12.60;99.90
20204;DHT22;10261;49.010;12.034;2023-05-07T00:05:39;12.50;99.90
20204;DHT22;10261;49.010;12.034;2023-05-07T00:06:43;12.50;99.90
20204;DHT22;10261;49.010;12.034;2023-05-07T00:07:45;12.60;99.90
20204;DHT22;10261;49.010;12.034;2023-05-07T00:08:48;12.50;99.90
20204;DHT22;10261;49.010;12.034;2023-05-07T00:09:50;12.60;99.90
20204;DHT22;10261;49.010;12.034;2023-05-07T00:10:54;12.60;99.90
20204;DHT22;10261;49.010;12.034;2023-05-07T00:11:56;12.60;99.90
20204;DHT22;10261;49.010;12.034;2023-05-07T00:12:59;12.60;99.90
20204;DHT22;10261;49.010;12.034;2023-05-07T00:14:02;12.60;99.90
20204;DHT22;10261;49.010;12.034;2023-05-07T00:15:06;12.50;99.90
20204;DHT22;10261;49.010;12.034;2023-05-07T00:16:08;12.50;99.90
20204;DHT22;10261;49.010;12.034;2023-05-07T00:17:11;12.50;99.90
20204;DHT22;10261;49.010;12.034;2023-05-07T00:18:13;12.50;99.90
20204;DHT22;10261;49.010;12.034;2023-05-07T00:19:16;12.50;99.90
20204;DHT22;10261;49.010;12.034;2023-05-07T00:20:18;12.50;99.90
20204;DHT22;10261;49.010;12.034;2023-05-07T00:21:21;12.60;99.90
20204;DHT22;10261;49.010;12.034;2023-05-07T00:22:23;12.50;99.90
20204;DHT22;10261;49.010;12.034;2023-05-07T00:23:26;12.50;99.90
20204;DHT22;10261;49.010;12.034;2023-05-07T00:24:28;12.40;99.90
20204;DHT22;10261;49.010;12.034;2023-05-07T00:25:31;12.50;99.90
20204;DHT22;10261;49.010;12.034;2023-05-07T00:26:34;12.50;99.90
20204;DHT22;10261;49.010;12.034;2023-05-07T00:27:37;12.50;99.90
20204;DHT22;10261;49.010;12.034;2023-05-07T00:28:39;12.50;99.90
20204;DHT22;10261;49.010;12.034;2023-05-07T00:29:42;12.50;99.90
20204;DHT22;10261;49.010;12.034;2023-05-07T00:30:44;12.50;99.90
20204;DHT22;10261;49.010;12.034;2023-05-07T00:31:49;12.50;99.90
20204;DHT22;10261;49.010;12.034;2023-05-07T00:32:51;12.50;99.90
20204;DHT22;10261;49.010;12.034;2023-05-07T00:33:54;12.50;99.90
20204;DHT22;10261;49.010;12.034;2023-05-07T00:34:56;12.40;99.90
20204;DHT22;10261;49.010;12.034;2023-05-07T00:35:59;12.50;99.90
20204;DHT22;10261;49.010;12.034;2023-05-07T00:37:02;12.40;99.90
20204;DHT22;10261;49.010;12.034;2023-05-07T00:38:07;12.40;99.90
20204;DHT22;10261;49.010;12.034;2023-05-07T00:39:09;12.40;99.90
20204;DHT22;10261;49.010;12.034;2023-05-07T00:40:12;12.30;99.90
20204;DHT22;10261;49.010;12.034;2023-05-07T00:41:15;12.40;99.90
20204;DHT22;10261;49.010;12.034;2023-05-07T00:42:19;12.30;99.90
20204;DHT22;10261;49.010;12.034;2023-05-07T00:43:22;12.40;99.90
20204;DHT22;10261;49.010;12.034;2023-05-07T00:44:24;12.30;99.90
20204;DHT22;10261;49.010;12.034;2023-05-07T00:45:28;12.30;99.90
20204;DHT22;10261;49.010;12.034;2023-05-07T00:46:30;12.40;99.90
20204;DHT22;10261;49.010;12.034;2023-05-07T00:47:34;12.40;99.90
20204;DHT22;10261;49.010;12.034;2023-05-07T00:48:36;12.40;99.90
20204;DHT22;10261;49.010;12.034;2023-05-07T00:49:41;12.40;99.90
20204;DHT22;10261;49.010;12.034;2023-05-07T00:50:43;12.40;99.90
20204;DHT22;10261;49.010;12.034;2023-05-07T00:51:47;12.40;99.90
20204;DHT22;10261;49.010;12.034;2023-05-07T00:52:49;12.30;99.90
20204;DHT22;10261;49.010;12.034;2023-05-07T00:53:52;12.30;99.90
20204;DHT22;10261;49.010;12.034;2023-05-07T00:54:54;12.40;99.90
20204;DHT22;10261;49.010;12.034;2023-05-07T00:55:57;12.30;99.90
20204;DHT22;10261;49.010;12.034;2023-05-07T00:57:00;12.30;99.90
20204;DHT22;10261;49.010;12.034;2023-05-07T00:58:06;12.50;99.90
20204;DHT22;10261;49.010;12.034;2023-05-07T00:59:08;12.30;99.90
20204;DHT22;10261;49.010;12.034;2023-05-07T01:00:12;12.30;99.90
20204;DHT22;10261;49.010;12.034;2023-05-07T01:01:15;12.30;99.90
20204;DHT22;10261;49.010;12.034;2023-05-07T01:02:18;12.30;99.90
20204;DHT22;10261;49.010;12.034;2023-05-07T01:03:20;12.40;99.90
20204;DHT22;10261;49.010;12.034;2023-05-07T01:04:24;12.40;99.90
20204;DHT22;10261;49.010;12.034;2023-05-07T01:05:27;12.40;99.90
20204;DHT22;10261;49.010;12.034;2023-05-07T01:06:33;12.50;99.90
20204;DHT22;10261;49.010;12.034;2023-05-07T01:07:35;12.50;99.90
20204;DHT22;10261;49.010;12.034;2023-05-07T01:08:39;12.50;99.90
20204;DHT22;10261;49.010;12.034;2023-05-07T01:09:42;12.50;99.90
20204;DHT22;10261;49.010;12.034;2023-05-07T01:10:46;12.60;99.90
20204;DHT22;10261;49.010;12.034;2023-05-07T01:11:49;12.60;99.90
20204;DHT22;10261;49.010;12.034;2023-05-07T01:12:54;12.50;99.90
20204;DHT22;10261;49.010;12.034;2023-05-07T01:13:59;12.50;99.90
20204;DHT22;10261;49.010;12.034;2023-05-07T01:15:04;12.50;99.90
20204;DHT22;10261;49.010;12.034;2023-05-07T01:16:07;12.50;99.90
20204;DHT22;10261;49.010;12.034;2023-05-07T01:17:11;12.50;99.90
20204;DHT22;10261;49.010;12.034;2023-05-07T01:18:13;12.50;99.90
20204;DHT22;10261;49.010;12.034;2023-05-07T01:19:18;12.50;99.90
20204;DHT22;10261;49.010;12.034;2023-05-07T01:20:20;12.50;99.90
20204;DHT22;10261;49.010;12.034;2023-05-07T01:21:25;12.50;99.90
20204;DHT22;10261;49.010;12.034;2023-05-07T01:22:30;12.60;99.90
20204;DHT22;10261;49.010;12.034;2023-05-07T01:23:34;12.50;99.90
20204;DHT22;10261;49.010;12.034;2023-05-07T01:24:37;12.10;99.90
20204;DHT22;10261;49.010;12.034;2023-05-07T01:25:41;12.20;99.90
20204;DHT22;10261;49.010;12.034;2023-05-07T01:26:43;12.30;99.90
20204;DHT22;10261;49.010;12.034;2023-05-07T01:27:46;12.40;99.90
20204;DHT22;10261;49.010;12.034;2023-05-07T01:28:48;12.50;99.90
20204;DHT22;10261;49.010;12.034;2023-05-07T01:29:51;12.60;99.90
20204;DHT22;10261;49.010;12.034;2023-05-07T01:30:56;12.70;99.90
20204;DHT22;10261;49.010;12.034;2023-05-07T01:32:01;12.70;99.90
20204;DHT22;10261;49.010;12.034;2023-05-07T01:33:08;12.70;99.90
20204;DHT22;10261;49.010;12.034;2023-05-07T01:34:12;12.70;99.90
20204;DHT22;10261;49.010;12.034;2023-05-07T01:35:18;12.80;99.90
20204;DHT22;10261;49.010;12.034;2023-05-07T01:36:22;12.80;99.90
20204;DHT22;10261;49.010;12.034;2023-05-07T01:37:29;12.80;99.90
20204;DHT22;10261;49.010;12.034;2023-05-07T01:38:33;12.80;99.90
20204;DHT22;10261;49.010;12.034;2023-05-07T01:39:37;12.80;99.90
20204;DHT22;10261;49.010;12.034;2023-05-07T01:40:42;12.80;99.90
20204;DHT22;10261;49.010;12.034;2023-05-07T01:41:45;12.80;99.90
20204;DHT22;10261;49.010;12.034;2023-05-07T01:42:49;12.80;99.90
20204;DHT22;10261;49.010;12.034;2023-05-07T01:43:52;12.80;99.90
20204;DHT22;10261;49.010;12.034;2023-05-07T01:44:55;12.90;99.90
20204;DHT22;10261;49.010;12.034;2023-05-07T01:45:58;12.80;99.90
20204;DHT22;10261;49.010;12.034;2023-05-07T01:47:02;12.90;99.90
20204;DHT22;10261;49.010;12.034;2023-05-07T01:48:05;12.90;99.90
20204;DHT22;10261;49.010;12.034;2023-05-07T01:49:09;12.80;99.90
20204;DHT22;10261;49.010;12.034;2023-05-07T01:50:11;12.80;99.90
20204;DHT22;10261;49.010;12.034;2023-05-07T01:51:15;12.80;99.90
20204;DHT22;10261;49.010;12.034;2023-05-07T01:52:17;12.80;99.90
20204;DHT22;10261;49.010;12.034;2023-05-07T01:53:21;12.90;99.90
20204;DHT22;10261;49.010;12.034;2023-05-07T01:54:25;12.80;99.90
20204;DHT22;10261;49.010;12.034;2023-05-07T01:55:29;12.80;99.90
20204;DHT22;10261;49.010;12.034;2023-05-07T01:56:31;12.80;99.90
20204;DHT22;10261;49.010;12.034;2023-05-07T01:57:34;12.80;99.90
20204;DHT22;10261;49.010;12.034;2023-05-07T01:58:37;12.80;99.90
20204;DHT22;10261;49.010;12.034;2023-05-07T01:59:40;12.80;99.90
20204;DHT22;10261;49.010;12.034;2023-05-07T02:00:42;12.90;99.90
20204;DHT22;10261;49.010;12.034;2023-05-07T02:01:45;12.80;99.90
20204;DHT22;10261;49.010;12.034;2023-05-07T02:02:47;12.90;99.90
20204;DHT22;10261;49.010;12.034;2023-05-07T02:03:50;12.90;99.90
20204;DHT22;10261;49.010;12.034;2023-05-07T02:04:52;12.90;99.90
20204;DHT22;10261;49.010;12.034;2023-05-07T02:05:55;12.90;99.90
20204;DHT22;10261;49.010;12.034;2023-05-07T02:06:57;13.00;99.90
20204;DHT22;10261;49.010;12.034;2023-05-07T02:08:00;12.90;99.90
20204;DHT22;10261;49.010;12.034;2023-05-07T02:09:03;12.90;99.90
20204;DHT22;10261;49.010;12.034;2023-05-07T02:10:07;12.90;99.90
20204;DHT22;10261;49.010;12.034;2023-05-07T02:11:09;12.90;99.90
20204;DHT22;10261;49.010;12.034;2023-05-07T02:12:12;13.00;99.90
20204;DHT22;10261;49.010;12.034;2023-05-07T02:13:14;13.00;99.90
20204;DHT22;10261;49.010;12.034;2023-05-07T02:14:17;13.00;99.90
20204;DHT22;10261;49.010;12.034;2023-05-07T02:15:19;13.00;99.90
20204;DHT22;10261;49.010;12.034;2023-05-07T02:16:22;13.00;99.90
20204;DHT22;10261;49.010;12.034;2023-05-07T02:17:25;13.00;99.90
20204;DHT22;10261;49.010;12.034;2023-05-07T02:18:28;13.00;99.90
20204;DHT22;10261;49.010;12.034;2023-05-07T02:19:30;13.00;99.90
20204;DHT22;10261;49.010;12.034;2023-05-07T02:20:33;13.00;99.90
20204;DHT22;10261;49.010;12.034;2023-05-07T02:21:35;13.00;99.90
20204;DHT22;10261;49.010;12.034;2023-05-07T02:22:38;13.00;99.90
20204;DHT22;10261;49.010;12.034;2023-05-07T02:23:40;13.10;99.90
20204;DHT22;10261;49.010;12.034;2023-05-07T02:24:44;13.00;99.90
20204;DHT22;10261;49.010;12.034;2023-05-07T02:25:46;13.00;99.90
20204;DHT22;10261;49.010;12.034;2023-05-07T02:26:49;13.00;99.90
20204;DHT22;10261;49.010;12.034;2023-05-07T02:27:51;13.00;99.90
20204;DHT22;10261;49.010;12.034;2023-05-07T02:28:54;13.00;99.90
20204;DHT22;10261;49.010;12.034;2023-05-07T02:29:57;13.00;99.90
20204;DHT22;10261;49.010;12.034;2023-05-07T02:30:59;13.00;99.90
20204;DHT22;10261;49.010;12.034;2023-05-07T02:32:02;12.90;99.90
20204;DHT22;10261;49.010;12.034;2023-05-07T02:33:04;12.90;99.90
20204;DHT22;10261;49.010;12.034;2023-05-07T02:34:08;12.90;99.90
20204;DHT22;10261;49.010;12.034;2023-05-07T02:35:10;13.00;99.90
20204;DHT22;10261;49.010;12.034;2023-05-07T02:36:13;12.90;99.90
20204;DHT22;10261;49.010;12.034;2023-05-07T02:37:15;13.00;99.90
20204;DHT22;10261;49.010;12.034;2023-05-07T02:38:18;13.00;99.90
20204;DHT22;10261;49.010;12.034;2023-05-07T02:39:20;13.00;99.90
20204;DHT22;10261;49.010;12.034;2023-05-07T02:40:24;13.00;99.90
20204;DHT22;10261;49.010;12.034;2023-05-07T02:41:26;13.00;99.90
20204;DHT22;10261;49.010;12.034;2023-05-07T02:42:30;13.00;99.90
20204;DHT22;10261;49.010;12.034;2023-05-07T02:43:32;13.00;99.90
20204;DHT22;10261;49.010;12.034;2023-05-07T02:44:35;13.00;99.90
20204;DHT22;10261;49.010;12.034;2023-05-07T02:45:37;13.00;99.90
20204;DHT22;10261;49.010;12.034;2023-05-07T02:46:40;13.00;99.90
20204;DHT22;10261;49.010;12.034;2023-05-07T02:47:42;13.00;99.90
20204;DHT22;10261;49.010;12.034;2023-05-07T02:48:45;13.00;99.90
20204;DHT22;10261;49.010;12.034;2023-05-07T02:49:47;13.00;99.90
20204;DHT22;10261;49.010;12.034;2023-05-07T02:50:50;13.00;99.90
20204;DHT22;10261;49.010;12.034;2023-05-07T02:51:52;13.00;99.90
20204;DHT22;10261;49.010;12.034;2023-05-07T02:52:55;13.00;99.90
20204;DHT22;10261;49.010;12.034;2023-05-07T02:53:57;13.00;99.90
20204;DHT22;10261;49.010;12.034;2023-05-07T02:55:00;13.00;99.90
20204;DHT22;10261;49.010;12.034;2023-05-07T02:56:04;13.00;99.90
20204;DHT22;10261;49.010;12.034;2023-05-07T02:57:07;13.00;99.90
20204;DHT22;10261;49.010;12.034;2023-05-07T02:58:09;13.00;99.90
20204;DHT22;10261;49.010;12.034;2023-05-07T02:59:12;13.00;99.90
20204;DHT22;10261;49.010;12.034;2023-05-07T03:00:16;13.00;99.90
20204;DHT22;10261;49.010;12.034;2023-05-07T03:01:19;13.00;99.90
20204;DHT22;10261;49.010;12.034;2023-05-07T03:02:22;13.00;99.90
20204;DHT22;10261;49.010;12.034;2023-05-07T03:03:25;12.90;99.90
20204;DHT22;10261;49.010;12.034;2023-05-07T03:04:27;12.90;99.90
20204;DHT22;10261;49.010;12.034;2023-05-07T03:05:30;12.90;99.90
20204;DHT22;10261;49.010;12.034;2023-05-07T03:06:32;12.90;99.90
20204;DHT22;10261;49.010;12.034;2023-05-07T03:07:35;12.90;99.90
20204;DHT22;10261;49.010;12.034;2023-05-07T03:08:37;12.90;99.90
20204;DHT22;10261;49.010;12.034;2023-05-07T03:09:40;12.90;99.90
20204;DHT22;10261;49.010;12.034;2023-05-07T03:10:42;12.90;99.90
20204;DHT22;10261;49.010;12.034;2023-05-07T03:11:46;12.90;99.90
20204;DHT22;10261;49.010;12.034;2023-05-07T03:12:48;12.90;99.90
20204;DHT22;10261;49.010;12.034;2023-05-07T03:13:51;13.00;99.90
20204;DHT22;10261;49.010;12.034;2023-05-07T03:14:53;12.90;99.90
20204;DHT22;10261;49.010;12.034;2023-05-07T03:15:56;13.00;99.90
20204;DHT22;10261;49.010;12.034;2023-05-07T03:16:58;13.00;99.90
20204;DHT22;10261;49.010;12.034;2023-05-07T03:18:01;13.00;99.90
20204;DHT22;10261;49.010;12.034;2023-05-07T03:19:03;13.00;99.90
20204;DHT22;10261;49.010;12.034;2023-05-07T03:20:08;13.00;99.90
20204;DHT22;10261;49.010;12.034;2023-05-07T03:21:12;13.00;99.90
20204;DHT22;10261;49.010;12.034;2023-05-07T03:22:15;13.00;99.90
20204;DHT22;10261;49.010;12.034;2023-05-07T03:23:17;13.00;99.90
20204;DHT22;10261;49.010;12.034;2023-05-07T03:24:20;13.00;99.90
20204;DHT22;10261;49.010;12.034;2023-05-07T03:25:22;13.00;99.90
20204;DHT22;10261;49.010;12.034;2023-05-07T03:26:25;13.00;99.90
20204;DHT22;10261;49.010;12.034;2023-05-07T03:27:28;13.00;99.90
20204;DHT22;10261;49.010;12.034;2023-05-07T03:28:31;13.00;99.90
20204;DHT22;10261;49.010;12.034;2023-05-07T03:29:33;13.00;99.90
20204;DHT22;10261;49.010;12.034;2023-05-07T03:30:36;13.00;99.90
20204;DHT22;10261;49.010;12.034;2023-05-07T03:31:38;12.90;99.90
20204;DHT22;10261;49.010;12.034;2023-05-07T03:32:41;12.90;99.90
20204;DHT22;10261;49.010;12.034;2023-05-07T03:33:50;12.90;99.90
20204;DHT22;10261;49.010;12.034;2023-05-07T03:34:53;12.90;99.90
20204;DHT22;10261;49.010;12.034;2023-05-07T03:35:55;12.90;99.90
20204;DHT22;10261;49.010;12.034;2023-05-07T03:36:58;12.90;99.90
20204;DHT22;10261;49.010;12.034;2023-05-07T03:38:01;12.90;99.90
20204;DHT22;10261;49.010;12.034;2023-05-07T03:39:03;13.00;99.90
20204;DHT22;10261;49.010;12.034;2023-05-07T03:40:07;12.90;99.90
20204;DHT22;10261;49.010;12.034;2023-05-07T03:41:10;12.90;99.90
20204;DHT22;10261;49.010;12.034;2023-05-07T03:42:13;12.90;99.90
20204;DHT22;10261;49.010;12.034;2023-05-07T03:43:16;12.90;99.90
20204;DHT22;10261;49.010;12.034;2023-05-07T03:44:19;12.90;99.90
20204;DHT22;10261;49.010;12.034;2023-05-07T03:45:21;12.90;99.90
20204;DHT22;10261;49.010;12.034;2023-05-07T03:46:24;12.90;99.90
20204;DHT22;10261;49.010;12.034;2023-05-07T03:47:27;12.90;99.90
20204;DHT22;10261;49.010;12.034;2023-05-07T03:48:31;12.90;99.90
20204;DHT22;10261;49.010;12.034;2023-05-07T03:49:33;12.90;99.90
20204;DHT22;10261;49.010;12.034;2023-05-07T03:50:36;12.90;99.90
20204;DHT22;10261;49.010;12.034;2023-05-07T03:51:39;12.90;99.90
20204;DHT22;10261;49.010;12.034;2023-05-07T03:52:42;12.80;99.90
20204;DHT22;10261;49.010;12.034;2023-05-07T03:53:44;12.80;99.90
20204;DHT22;10261;49.010;12.034;2023-05-07T03:54:48;12.80;99.90
20204;DHT22;10261;49.010;12.034;2023-05-07T03:55:50;12.80;99.90
20204;DHT22;10261;49.010;12.034;2023-05-07T03:56:53;12.80;99.90
20204;DHT22;10261;49.010;12.034;2023-05-07T03:57:55;12.80;99.90
20204;DHT22;10261;49.010;12.034;2023-05-07T03:59:00;12.80;99.90
20204;DHT22;10261;49.010;12.034;2023-05-07T04:00:02;12.70;99.90
20204;DHT22;10261;49.010;12.034;2023-05-07T04:01:06;12.80;99.90
20204;DHT22;10261;49.010;12.034;2023-05-07T04:02:09;12.80;99.90
20204;DHT22;10261;49.010;12.034;2023-05-07T04:03:12;12.80;99.90
20204;DHT22;10261;49.010;12.034;2023-05-07T04:04:14;12.70;99.90
20204;DHT22;10261;49.010;12.034;2023-05-07T04:05:17;12.70;99.90
20204;DHT22;10261;49.010;12.034;2023-05-07T04:06:19;12.70;99.90
20204;DHT22;10261;49.010;12.034;2023-05-07T04:07:22;12.70;99.90
20204;DHT22;10261;49.010;12.034;2023-05-07T04:08:24;12.70;99.90
20204;DHT22;10261;49.010;12.034;2023-05-07T04:09:27;12.80;99.90
20204;DHT22;10261;49.010;12.034;2023-05-07T04:10:31;12.70;99.90
20204;DHT22;10261;49.010;12.034;2023-05-07T04:11:35;12.70;99.90
20204;DHT22;10261;49.010;12.034;2023-05-07T04:12:37;12.70;99.90
20204;DHT22;10261;49.010;12.034;2023-05-07T04:13:40;12.70;99.90
20204;DHT22;10261;49.010;12.034;2023-05-07T04:14:44;12.70;99.90
20204;DHT22;10261;49.010;12.034;2023-05-07T04:15:47;12.70;99.90
20204;DHT22;10261;49.010;12.034;2023-05-07T04:16:50;12.70;99.90
20204;DHT22;10261;49.010;12.034;2023-05-07T04:17:53;12.70;99.90
20204;DHT22;10261;49.010;12.034;2023-05-07T04:18:55;12.80;99.90
20204;DHT22;10261;49.010;12.034;2023-05-07T04:19:58;12.70;99.90
20204;DHT22;10261;49.010;12.034;2023-05-07T04:21:00;12.70;99.90
20204;DHT22;10261;49.010;12.034;2023-05-07T04:22:03;12.70;99.90
20204;DHT22;10261;49.010;12.034;2023-05-07T04:23:05;12.80;99.90
20204;DHT22;10261;49.010;12.034;2023-05-07T04:24:08;12.70;99.90
20204;DHT22;10261;49.010;12.034;2023-05-07T04:25:11;12.80;99.90
20204;DHT22;10261;49.010;12.034;2023-05-07T04:26:14;12.70;99.90
20204;DHT22;10261;49.010;12.034;2023-05-07T04:27:16;12.80;99.90
20204;DHT22;10261;49.010;12.034;2023-05-07T04:28:19;12.80;99.90
20204;DHT22;10261;49.010;12.034;2023-05-07T04:29:21;12.70;99.90
20204;DHT22;10261;49.010;12.034;2023-05-07T04:30:25;12.70;99.90
20204;DHT22;10261;49.010;12.034;2023-05-07T04:31:27;12.70;99.90
20204;DHT22;10261;49.010;12.034;2023-05-07T04:32:30;12.70;99.90
20204;DHT22;10261;49.010;12.034;2023-05-07T04:33:33;12.70;99.90
20204;DHT22;10261;49.010;12.034;2023-05-07T04:34:37;12.70;99.90
20204;DHT22;10261;49.010;12.034;2023-05-07T04:35:39;12.80;99.90
20204;DHT22;10261;49.010;12.034;2023-05-07T04:36:42;12.80;99.90
20204;DHT22;10261;49.010;12.034;2023-05-07T04:37:44;12.80;99.90
20204;DHT22;10261;49.010;12.034;2023-05-07T04:38:47;12.80;99.90
20204;DHT22;10261;49.010;12.034;2023-05-07T04:39:49;12.90;99.90
20204;DHT22;10261;49.010;12.034;2023-05-07T04:40:52;12.80;99.90
20204;DHT22;10261;49.010;12.034;2023-05-07T04:41:54;12.90;99.90
20204;DHT22;10261;49.010;12.034;2023-05-07T04:42:57;12.90;99.90
20204;DHT22;10261;49.010;12.034;2023-05-07T04:43:59;13.00;99.90
20204;DHT22;10261;49.010;12.034;2023-05-07T04:45:04;12.90;99.90
20204;DHT22;10261;49.010;12.034;2023-05-07T04:46:08;13.00;99.90
20204;DHT22;10261;49.010;12.034;2023-05-07T04:47:11;13.00;99.90
20204;DHT22;10261;49.010;12.034;2023-05-07T04:48:13;13.10;99.90
20204;DHT22;10261;49.010;12.034;2023-05-07T04:49:17;13.00;99.90
20204;DHT22;10261;49.010;12.034;2023-05-07T04:50:20;13.00;99.90
20204;DHT22;10261;49.010;12.034;2023-05-07T04:51:25;13.10;99.90
20204;DHT22;10261;49.010;12.034;2023-05-07T04:52:28;13.10;99.90
20204;DHT22;10261;49.010;12.034;2023-05-07T04:53:30;13.10;99.90
20204;DHT22;10261;49.010;12.034;2023-05-07T04:54:33;13.10;99.90
20204;DHT22;10261;49.010;12.034;2023-05-07T04:55:35;13.20;99.90
20204;DHT22;10261;49.010;12.034;2023-05-07T04:56:37;13.20;99.90
20204;DHT22;10261;49.010;12.034;2023-05-07T04:57:39;13.20;99.90
20204;DHT22;10261;49.010;12.034;2023-05-07T04:58:43;13.20;99.90
20204;DHT22;10261;49.010;12.034;2023-05-07T04:59:45;13.20;99.90
20204;DHT22;10261;49.010;12.034;2023-05-07T05:00:48;13.20;99.90
20204;DHT22;10261;49.010;12.034;2023-05-07T05:01:51;13.20;99.90
20204;DHT22;10261;49.010;12.034;2023-05-07T05:02:54;13.20;99.90
20204;DHT22;10261;49.010;12.034;2023-05-07T05:03:56;13.30;99.90
20204;DHT22;10261;49.010;12.034;2023-05-07T05:05:02;13.30;99.90
20204;DHT22;10261;49.010;12.034;2023-05-07T05:06:04;13.30;99.90
20204;DHT22;10261;49.010;12.034;2023-05-07T05:07:07;13.30;99.90
20204;DHT22;10261;49.010;12.034;2023-05-07T05:08:09;13.30;99.90
20204;DHT22;10261;49.010;12.034;2023-05-07T05:09:12;13.40;99.90
20204;DHT22;10261;49.010;12.034;2023-05-07T05:10:14;13.40;99.90
20204;DHT22;10261;49.010;12.034;2023-05-07T05:11:17;13.40;99.90
20204;DHT22;10261;49.010;12.034;2023-05-07T05:12:21;13.40;99.90
20204;DHT22;10261;49.010;12.034;2023-05-07T05:13:23;13.40;99.90
20204;DHT22;10261;49.010;12.034;2023-05-07T05:14:26;13.40;99.90
20204;DHT22;10261;49.010;12.034;2023-05-07T05:15:28;13.50;99.90
20204;DHT22;10261;49.010;12.034;2023-05-07T05:16:34;13.50;99.90
20204;DHT22;10261;49.010;12.034;2023-05-07T05:17:38;13.50;99.90
20204;DHT22;10261;49.010;12.034;2023-05-07T05:18:41;13.50;99.90
20204;DHT22;10261;49.010;12.034;2023-05-07T05:19:43;13.50;99.90
20204;DHT22;10261;49.010;12.034;2023-05-07T05:20:45;13.50;99.90
20204;DHT22;10261;49.010;12.034;2023-05-07T05:21:47;13.50;99.90
20204;DHT22;10261;49.010;12.034;2023-05-07T05:22:50;13.50;99.90
20204;DHT22;10261;49.010;12.034;2023-05-07T05:23:52;13.50;99.90
20204;DHT22;10261;49.010;12.034;2023-05-07T05:24:55;13.50;99.90
20204;DHT22;10261;49.010;12.034;2023-05-07T05:25:58;13.50;99.90
20204;DHT22;10261;49.010;12.034;2023-05-07T05:27:01;13.50;99.90
20204;DHT22;10261;49.010;12.034;2023-05-07T05:28:03;13.50;99.90
20204;DHT22;10261;49.010;12.034;2023-05-07T05:29:06;13.50;99.90
20204;DHT22;10261;49.010;12.034;2023-05-07T05:30:10;13.50;99.90
20204;DHT22;10261;49.010;12.034;2023-05-07T05:31:13;13.50;99.90
20204;DHT22;10261;49.010;12.034;2023-05-07T05:32:16;13.50;99.90
20204;DHT22;10261;49.010;12.034;2023-05-07T05:33:20;13.50;99.90
20204;DHT22;10261;49.010;12.034;2023-05-07T05:34:23;13.50;99.90
20204;DHT22;10261;49.010;12.034;2023-05-07T05:35:25;13.50;99.90
20204;DHT22;10261;49.010;12.034;2023-05-07T05:36:28;13.50;99.90
20204;DHT22;10261;49.010;12.034;2023-05-07T05:37:32;13.50;99.90
20204;DHT22;10261;49.010;12.034;2023-05-07T05:38:34;13.50;99.90
20204;DHT22;10261;49.010;12.034;2023-05-07T05:39:37;13.50;99.90
20204;DHT22;10261;49.010;12.034;2023-05-07T05:40:40;13.50;99.90
20204;DHT22;10261;49.010;12.034;2023-05-07T05:41:42;13.60;99.90
20204;DHT22;10261;49.010;12.034;2023-05-07T05:42:45;13.60;99.90
20204;DHT22;10261;49.010;12.034;2023-05-07T05:43:48;13.60;99.90
20204;DHT22;10261;49.010;12.034;2023-05-07T05:44:51;13.60;99.90
20204;DHT22;10261;49.010;12.034;2023-05-07T05:45:54;13.60;99.90
20204;DHT22;10261;49.010;12.034;2023-05-07T05:46:57;13.60;99.90
20204;DHT22;10261;49.010;12.034;2023-05-07T05:48:00;13.70;99.90
20204;DHT22;10261;49.010;12.034;2023-05-07T05:49:05;13.70;99.90
20204;DHT22;10261;49.010;12.034;2023-05-07T05:50:07;13.70;99.90
20204;DHT22;10261;49.010;12.034;2023-05-07T05:51:11;13.70;99.90
20204;DHT22;10261;49.010;12.034;2023-05-07T05:52:13;13.80;99.90
20204;DHT22;10261;49.010;12.034;2023-05-07T05:53:16;13.80;99.90
20204;DHT22;10261;49.010;12.034;2023-05-07T05:54:18;13.80;99.90
20204;DHT22;10261;49.010;12.034;2023-05-07T05:55:21;13.80;99.90
20204;DHT22;10261;49.010;12.034;2023-05-07T05:56:23;13.80;99.90
20204;DHT22;10261;49.010;12.034;2023-05-07T05:57:27;13.80;99.90
20204;DHT22;10261;49.010;12.034;2023-05-07T05:58:29;13.80;99.90
20204;DHT22;10261;49.010;12.034;2023-05-07T05:59:32;13.80;99.90
20204;DHT22;10261;49.010;12.034;2023-05-07T06:00:34;13.80;99.90
20204;DHT22;10261;49.010;12.034;2023-05-07T06:01:37;13.80;99.90
20204;DHT22;10261;49.010;12.034;2023-05-07T06:02:40;13.80;99.90
20204;DHT22;10261;49.010;12.034;2023-05-07T06:03:44;13.80;99.90
20204;DHT22;10261;49.010;12.034;2023-05-07T06:04:47;13.80;99.90
20204;DHT22;10261;49.010;12.034;2023-05-07T06:05:50;13.90;99.90
20204;DHT22;10261;49.010;12.034;2023-05-07T06:06:53;13.90;99.90
20204;DHT22;10261;49.010;12.034;2023-05-07T06:07:56;13.90;99.90
20204;DHT22;10261;49.010;12.034;2023-05-07T06:08:57;13.90;99.90
20204;DHT22;10261;49.010;12.034;2023-05-07T06:10:01;13.90;99.90
20204;DHT22;10261;49.010;12.034;2023-05-07T06:11:03;13.90;99.90
20204;DHT22;10261;49.010;12.034;2023-05-07T06:12:06;13.90;99.90
20204;DHT22;10261;49.010;12.034;2023-05-07T06:13:08;13.90;99.90
20204;DHT22;10261;49.010;12.034;2023-05-07T06:14:11;13.90;99.90
20204;DHT22;10261;49.010;12.034;2023-05-07T06:15:13;13.90;99.90
20204;DHT22;10261;49.010;12.034;2023-05-07T06:16:16;14.00;99.90
20204;DHT22;10261;49.010;12.034;2023-05-07T06:17:18;13.90;99.90
20204;DHT22;10261;49.010;12.034;2023-05-07T06:18:22;14.00;99.90
20204;DHT22;10261;49.010;12.034;2023-05-07T06:19:24;14.00;99.90
20204;DHT22;10261;49.010;12.034;2023-05-07T06:20:31;14.00;99.90
20204;DHT22;10261;49.010;12.034;2023-05-07T06:21:33;14.00;99.90
20204;DHT22;10261;49.010;12.034;2023-05-07T06:22:36;14.00;99.90
20204;DHT22;10261;49.010;12.034;2023-05-07T06:23:38;14.00;99.90
20204;DHT22;10261;49.010;12.034;2023-05-07T06:24:42;14.00;99.90
20204;DHT22;10261;49.010;12.034;2023-05-07T06:25:48;14.00;99.90
20204;DHT22;10261;49.010;12.034;2023-05-07T06:26:51;14.00;99.90
20204;DHT22;10261;49.010;12.034;2023-05-07T06:27:54;14.00;99.90
20204;DHT22;10261;49.010;12.034;2023-05-07T06:28:56;14.00;99.90
20204;DHT22;10261;49.010;12.034;2023-05-07T06:29:59;14.00;99.90
20204;DHT22;10261;49.010;12.034;2023-05-07T06:31:12;14.00;99.90